createdAt,value
2022-09-23T00:02:48.190Z,48.33
2022-09-23T00:05:38.556Z,48.30
2022-09-23T00:08:28.543Z,48.22
2022-09-23T00:11:20.220Z,48.46
2022-09-23T00:14:10.872Z,48.24
2022-09-23T00:17:00.938Z,48.28
2022-09-23T00:19:50.999Z,48.15
2022-09-23T00:22:40.903Z,48.38
2022-09-23T00:25:30.817Z,48.20
2022-09-23T00:28:20.961Z,48.27
2022-09-23T00:31:12.486Z,48.25
2022-09-23T00:34:02.629Z,48.40
2022-09-23T00:36:52.538Z,48.34
2022-09-23T00:39:45.205Z,48.54
2022-09-23T00:42:35.102Z,48.23
2022-09-23T00:45:25.465Z,48.27
2022-09-23T00:48:17.549Z,48.30
2022-09-23T00:51:09.353Z,48.36
2022-09-23T00:53:59.275Z,48.20
2022-09-23T00:56:49.262Z,48.23
2022-09-23T00:59:39.141Z,48.46
2022-09-23T01:02:29.094Z,48.44
2022-09-23T01:05:19.401Z,48.35
2022-09-23T01:08:10.515Z,48.37
2022-09-23T01:11:09.727Z,48.37
2022-09-23T01:14:09.599Z,48.14
2022-09-23T01:17:03.269Z,48.41
2022-09-23T01:20:24.328Z,48.36
2022-09-23T01:23:28.439Z,48.37
2022-09-23T01:26:43.301Z,48.27
2022-09-23T01:30:10.472Z,48.24
2022-09-23T01:33:05.084Z,48.36
2022-09-23T01:36:09.804Z,48.37
2022-09-23T01:39:03.107Z,48.42
2022-09-23T01:41:59.288Z,48.37
2022-09-23T01:44:53.115Z,48.31
2022-09-23T01:47:47.770Z,48.40
2022-09-23T01:50:56.810Z,48.19
2022-09-23T01:53:49.256Z,48.19
2022-09-23T01:56:42.397Z,48.29
2022-09-23T01:59:35.132Z,48.35
2022-09-23T02:02:28.399Z,48.37
2022-09-23T02:05:20.951Z,48.48
2022-09-23T02:08:13.228Z,48.32
2022-09-23T02:11:05.898Z,48.30
2022-09-23T02:13:57.939Z,48.31
2022-09-23T02:16:49.050Z,48.22
2022-09-23T02:19:43.646Z,48.45
2022-09-23T02:22:38.494Z,48.30
2022-09-23T02:25:39.373Z,48.29
2022-09-23T02:28:32.579Z,48.40
2022-09-23T02:31:30.260Z,48.43
2022-09-23T02:34:28.440Z,48.23
2022-09-23T02:37:25.645Z,48.42
2022-09-23T02:40:21.989Z,48.25
2022-09-23T02:43:14.795Z,48.30
2022-09-23T02:46:05.813Z,48.32
2022-09-23T02:49:00.407Z,48.18
2022-09-23T02:51:50.432Z,48.25
2022-09-23T02:54:40.440Z,48.33
2022-09-23T02:57:30.280Z,48.26
2022-09-23T03:00:20.446Z,48.29
2022-09-23T03:03:23.066Z,48.25
2022-09-23T03:06:24.064Z,48.28
2022-09-23T03:09:18.197Z,48.42
2022-09-23T03:12:13.692Z,48.41
2022-09-23T03:15:14.857Z,48.24
2022-09-23T03:18:12.668Z,48.24
2022-09-23T03:21:05.704Z,48.30
2022-09-23T03:23:56.567Z,48.40
2022-09-23T03:26:47.261Z,48.26
2022-09-23T03:29:37.137Z,48.27
2022-09-23T03:32:28.400Z,48.46
2022-09-23T03:35:18.709Z,48.34
2022-09-23T03:38:16.795Z,48.21
2022-09-23T03:41:06.672Z,48.38
2022-09-23T03:43:58.924Z,48.39
2022-09-23T03:46:49.405Z,48.47
2022-09-23T03:49:39.439Z,48.25
2022-09-23T03:52:29.781Z,48.37
2022-09-23T03:55:20.705Z,48.36
2022-09-23T03:58:10.981Z,48.33
2022-09-23T04:01:01.358Z,48.30
2022-09-23T04:03:52.393Z,48.32
2022-09-23T04:06:42.684Z,48.28
2022-09-23T04:09:32.986Z,48.27
2022-09-23T04:12:23.220Z,48.27
2022-09-23T04:15:13.667Z,48.50
2022-09-23T04:18:04.296Z,48.42
2022-09-23T04:20:58.900Z,48.41
2022-09-23T04:23:49.235Z,48.43
2022-09-23T04:26:39.540Z,48.35
2022-09-23T04:29:29.931Z,48.19
2022-09-23T04:32:20.292Z,48.48
2022-09-23T04:35:10.831Z,48.37
2022-09-23T04:38:01.501Z,48.39
2022-09-23T04:40:52.057Z,48.37
2022-09-23T04:43:42.445Z,48.39
2022-09-23T04:46:33.009Z,48.42
2022-09-23T04:49:23.416Z,48.31
2022-09-23T04:52:13.686Z,48.44
2022-09-23T04:55:09.128Z,48.39
2022-09-23T04:58:01.360Z,48.36
2022-09-23T05:00:51.705Z,48.52
2022-09-23T05:03:42.293Z,48.26
2022-09-23T05:06:33.931Z,48.36
2022-09-23T05:09:24.501Z,48.50
2022-09-23T05:12:14.775Z,48.56
2022-09-23T05:15:06.451Z,48.47
2022-09-23T05:17:59.956Z,48.48
2022-09-23T05:20:55.377Z,48.41
2022-09-23T05:23:49.296Z,48.22
2022-09-23T05:26:39.938Z,48.33
2022-09-23T05:29:30.696Z,48.45
2022-09-23T05:32:21.274Z,48.37
2022-09-23T05:35:12.057Z,48.17
2022-09-23T05:38:02.337Z,48.44
2022-09-23T05:40:58.048Z,48.45
2022-09-23T05:43:48.324Z,48.51
2022-09-23T05:46:39.004Z,48.30
2022-09-23T05:49:48.622Z,48.40
2022-09-23T05:52:40.755Z,48.45
2022-09-23T05:55:31.094Z,48.37
2022-09-23T05:58:23.036Z,48.41
2022-09-23T06:01:14.762Z,48.40
2022-09-23T06:04:06.917Z,48.40
2022-09-23T06:07:02.802Z,48.30
2022-09-23T06:10:14.988Z,48.32
2022-09-23T06:13:05.713Z,48.29
2022-09-23T06:16:00.076Z,48.34
2022-09-23T06:18:50.415Z,48.54
2022-09-23T06:21:41.683Z,48.66
2022-09-23T06:24:31.967Z,48.52
2022-09-23T06:27:22.348Z,48.20
2022-09-23T06:30:16.497Z,48.38
2022-09-23T06:33:06.945Z,48.15
2022-09-23T06:35:59.961Z,48.36
2022-09-23T06:38:52.714Z,48.48
2022-09-23T06:41:43.735Z,48.49
2022-09-23T06:44:37.949Z,48.38
2022-09-23T06:47:29.448Z,48.56
2022-09-23T06:50:20.112Z,48.11
2022-09-23T06:53:10.690Z,47.12
2022-09-23T06:56:02.162Z,46.04
2022-09-23T06:58:56.308Z,45.07
2022-09-23T07:01:47.782Z,45.08
2022-09-23T07:04:38.362Z,44.72
2022-09-23T07:07:32.316Z,44.25
2022-09-23T07:10:22.719Z,43.95
2022-09-23T07:13:16.238Z,44.12
2022-09-23T07:16:07.931Z,44.35
2022-09-23T07:18:59.318Z,44.62
2022-09-23T07:21:50.080Z,45.27
2022-09-23T07:24:40.790Z,45.06
2022-09-23T07:27:31.241Z,45.04
2022-09-23T07:30:25.771Z,44.97
2022-09-23T07:33:28.092Z,45.03
2022-09-23T07:36:21.739Z,44.89
2022-09-23T07:39:13.212Z,45.04
2022-09-23T07:42:06.738Z,45.09
2022-09-23T07:44:57.248Z,45.20
2022-09-23T07:47:48.467Z,45.37
2022-09-23T07:50:40.642Z,45.33
2022-09-23T07:53:31.247Z,45.74
2022-09-23T07:56:27.710Z,46.14
2022-09-23T07:59:19.438Z,46.09
2022-09-23T08:02:14.783Z,46.35
2022-09-23T08:05:06.391Z,46.35
2022-09-23T08:07:57.151Z,46.40
2022-09-23T08:10:47.929Z,46.65
2022-09-23T08:13:38.240Z,46.40
2022-09-23T08:16:28.851Z,46.64
2022-09-23T08:19:19.213Z,46.52
2022-09-23T08:22:09.589Z,46.55
2022-09-23T08:25:00.237Z,46.43
2022-09-23T08:27:51.995Z,46.69
2022-09-23T08:30:42.368Z,46.70
2022-09-23T08:33:32.770Z,46.79
2022-09-23T08:36:23.028Z,47.18
2022-09-23T08:39:16.865Z,47.10
2022-09-23T08:42:16.785Z,47.26
2022-09-23T08:45:12.455Z,47.27
2022-09-23T08:48:09.533Z,47.28
2022-09-23T08:51:06.377Z,47.31
2022-09-23T08:53:56.717Z,47.05
2022-09-23T08:56:49.025Z,46.91
2022-09-23T08:59:41.792Z,46.86
2022-09-23T09:02:34.309Z,46.56
2022-09-23T09:05:27.174Z,46.18
2022-09-23T09:08:18.713Z,45.68
2022-09-23T09:11:11.523Z,45.37
2022-09-23T09:14:10.724Z,45.58
2022-09-23T09:17:03.537Z,45.78
2022-09-23T09:19:58.830Z,45.46
2022-09-23T09:22:54.360Z,45.14
2022-09-23T09:25:46.354Z,45.16
2022-09-23T09:28:40.591Z,45.17
2022-09-23T09:31:35.518Z,45.13
2022-09-23T09:34:30.905Z,45.22
2022-09-23T09:37:25.115Z,44.89
2022-09-23T09:40:16.550Z,45.01
2022-09-23T09:43:06.895Z,44.88
2022-09-23T09:46:07.725Z,44.73
2022-09-23T09:49:00.577Z,44.77
2022-09-23T09:51:54.773Z,44.69
2022-09-23T09:54:45.052Z,44.65
2022-09-23T09:57:43.529Z,44.64
2022-09-23T10:00:42.781Z,44.72
2022-09-23T10:03:38.869Z,44.56
2022-09-23T10:06:31.837Z,44.43
2022-09-23T10:09:36.118Z,44.37
2022-09-23T10:12:26.763Z,44.31
2022-09-23T10:15:30.718Z,44.16
2022-09-23T10:18:23.100Z,44.47
2022-09-23T10:21:14.305Z,44.58
2022-09-23T10:24:06.970Z,44.67
2022-09-23T10:27:00.729Z,44.69
2022-09-23T10:29:52.080Z,44.74
2022-09-23T10:32:45.657Z,44.80
2022-09-23T10:35:36.198Z,44.73
2022-09-23T10:38:26.530Z,44.93
2022-09-23T10:41:44.807Z,44.73
2022-09-23T10:44:57.760Z,44.56
2022-09-23T10:47:54.371Z,44.99
2022-09-23T10:50:48.107Z,44.91
2022-09-23T10:53:42.970Z,45.00
2022-09-23T10:56:36.930Z,45.25
2022-09-23T10:59:56.828Z,45.50
2022-09-23T11:03:12.369Z,45.32
2022-09-23T11:06:13.068Z,45.38
2022-09-23T11:09:27.546Z,45.50
2022-09-23T11:12:25.732Z,45.48
2022-09-23T11:15:26.597Z,45.70
2022-09-23T11:18:51.074Z,45.46
2022-09-23T11:21:56.529Z,45.65
2022-09-23T11:25:16.647Z,45.48
2022-09-23T11:28:25.562Z,45.42
2022-09-23T11:31:25.967Z,45.37
2022-09-23T11:34:40.349Z,45.38
2022-09-23T11:37:33.267Z,45.32
2022-09-23T11:40:28.147Z,45.34
2022-09-23T11:43:22.790Z,45.44
2022-09-23T11:46:18.469Z,45.23
2022-09-23T11:49:14.913Z,45.32
2022-09-23T11:52:08.647Z,45.34
2022-09-23T11:55:03.442Z,45.41
2022-09-23T11:58:01.573Z,45.36
2022-09-23T12:01:00.849Z,45.31
2022-09-23T12:03:55.642Z,45.30
2022-09-23T12:06:48.129Z,45.33
2022-09-23T12:09:57.783Z,45.35
2022-09-23T12:12:56.899Z,45.39
2022-09-23T12:15:58.497Z,45.43
2022-09-23T12:18:58.588Z,45.24
2022-09-23T12:21:59.793Z,45.34
2022-09-23T12:24:56.660Z,45.35
2022-09-23T12:27:49.684Z,45.35
2022-09-23T12:30:39.991Z,45.57
2022-09-23T12:33:31.865Z,45.38
2022-09-23T12:36:29.823Z,45.26
2022-09-23T12:39:26.387Z,45.25
2022-09-23T12:42:18.384Z,45.36
2022-09-23T12:45:37.982Z,45.40
2022-09-23T12:48:46.107Z,45.40
2022-09-23T12:51:36.969Z,45.42
2022-09-23T12:54:27.316Z,45.34
2022-09-23T12:57:40.180Z,45.44
2022-09-23T13:00:34.204Z,45.26
2022-09-23T13:03:43.167Z,45.40
2022-09-23T13:06:42.914Z,45.28
2022-09-23T13:09:39.337Z,45.31
2022-09-23T13:12:32.312Z,45.33
2022-09-23T13:15:30.041Z,45.43
2022-09-23T13:18:58.113Z,45.39
2022-09-23T13:22:14.637Z,45.29
2022-09-23T13:25:18.519Z,45.34
2022-09-23T13:28:24.241Z,45.34
2022-09-23T13:31:16.105Z,45.33
2022-09-23T13:34:07.479Z,45.33
2022-09-23T13:36:58.236Z,45.34
2022-09-23T13:39:48.496Z,45.42
2022-09-23T13:42:40.049Z,45.45
2022-09-23T13:45:31.176Z,45.39
2022-09-23T13:48:23.209Z,45.40
2022-09-23T13:51:19.267Z,45.43
2022-09-23T13:54:28.335Z,45.48
2022-09-23T13:57:26.304Z,45.44
2022-09-23T14:00:21.736Z,45.71
2022-09-23T14:03:26.135Z,45.72
2022-09-23T14:06:16.760Z,45.49
2022-09-23T14:09:07.188Z,45.56
2022-09-23T14:11:59.145Z,45.76
2022-09-23T14:14:51.081Z,45.65
2022-09-23T14:17:41.462Z,45.65
2022-09-23T14:20:33.717Z,45.60
2022-09-23T14:23:24.170Z,45.70
2022-09-23T14:26:14.488Z,45.71
2022-09-23T14:29:05.530Z,45.76
2022-09-23T14:32:00.117Z,45.81
2022-09-23T14:34:52.841Z,45.74
2022-09-23T14:38:02.167Z,45.90
2022-09-23T14:40:53.996Z,45.79
2022-09-23T14:43:52.007Z,45.88
2022-09-23T14:46:57.382Z,45.90
2022-09-23T14:50:09.521Z,46.04
2022-09-23T14:53:00.186Z,45.85
2022-09-23T14:55:52.194Z,45.97
2022-09-23T14:58:52.032Z,45.92
2022-09-23T15:01:43.112Z,45.98
2022-09-23T15:04:36.641Z,46.00
2022-09-23T15:07:26.924Z,46.06
2022-09-23T15:10:23.093Z,45.99
2022-09-23T15:13:14.660Z,46.09
2022-09-23T15:16:05.868Z,46.06
2022-09-23T15:18:57.349Z,46.15
2022-09-23T15:21:50.281Z,46.08
2022-09-23T15:24:44.211Z,46.04
2022-09-23T15:27:34.860Z,46.06
2022-09-23T15:30:25.200Z,46.15
2022-09-23T15:33:15.950Z,46.10
2022-09-23T15:36:07.637Z,46.17
2022-09-23T15:38:59.394Z,46.16
2022-09-23T15:41:49.865Z,46.21
2022-09-23T15:44:40.429Z,46.29
2022-09-23T15:47:31.110Z,46.17
2022-09-23T15:50:21.672Z,46.36
2022-09-23T15:53:14.930Z,46.24
2022-09-23T15:56:06.180Z,46.11
2022-09-23T15:58:56.476Z,46.26
2022-09-23T16:01:47.278Z,46.28
2022-09-23T16:04:37.649Z,46.32
2022-09-23T16:07:28.217Z,46.28
2022-09-23T16:10:19.767Z,46.31
2022-09-23T16:13:14.470Z,46.41
2022-09-23T16:16:07.384Z,46.21
2022-09-23T16:18:57.910Z,46.27
2022-09-23T16:21:48.390Z,46.17
2022-09-23T16:24:38.739Z,46.42
2022-09-23T16:27:29.119Z,46.46
2022-09-23T16:30:19.779Z,46.49
2022-09-23T16:33:10.052Z,46.38
2022-09-23T16:36:00.672Z,46.27
2022-09-23T16:38:50.990Z,46.49
2022-09-23T16:41:42.932Z,46.24
2022-09-23T16:44:33.552Z,46.31
2022-09-23T16:47:23.951Z,46.31
2022-09-23T16:50:15.714Z,46.32
2022-09-23T16:53:06.045Z,46.39
2022-09-23T16:55:57.357Z,46.30
2022-09-23T16:58:49.173Z,46.36
2022-09-23T17:01:58.259Z,46.35
2022-09-23T17:04:48.724Z,46.58
2022-09-23T17:07:39.643Z,46.54
2022-09-23T17:10:29.991Z,46.58
2022-09-23T17:13:20.303Z,46.51
2022-09-23T17:16:11.436Z,46.49
2022-09-23T17:19:06.242Z,46.42
2022-09-23T17:21:56.619Z,46.43
2022-09-23T17:24:47.105Z,46.52
2022-09-23T17:27:37.525Z,46.57
2022-09-23T17:30:28.237Z,46.47
2022-09-23T17:33:20.154Z,46.56
2022-09-23T17:36:12.785Z,46.55
2022-09-23T17:39:05.542Z,46.52
2022-09-23T17:41:57.921Z,46.48
2022-09-23T17:44:48.497Z,46.46
2022-09-23T17:47:41.707Z,46.55
2022-09-23T17:50:32.471Z,46.52
2022-09-23T17:53:24.196Z,46.42
2022-09-23T17:56:16.860Z,46.46
2022-09-23T17:59:09.680Z,46.46
2022-09-23T18:02:00.408Z,46.55
2022-09-23T18:04:50.772Z,46.59
2022-09-23T18:07:42.184Z,46.58
2022-09-23T18:10:33.023Z,46.53
2022-09-23T18:13:23.618Z,46.47
2022-09-23T18:16:14.216Z,46.67
2022-09-23T18:19:06.108Z,46.63
2022-09-23T18:21:57.106Z,46.57
2022-09-23T18:24:47.485Z,46.52
2022-09-23T18:27:38.076Z,46.55
2022-09-23T18:30:32.460Z,46.57
2022-09-23T18:33:23.074Z,46.60
2022-09-23T18:36:13.690Z,46.42
2022-09-23T18:39:04.355Z,46.61
2022-09-23T18:41:55.003Z,46.46
2022-09-23T18:44:45.429Z,46.58
2022-09-23T18:47:54.168Z,46.63
2022-09-23T18:50:46.947Z,46.73
2022-09-23T18:53:38.912Z,46.76
2022-09-23T18:56:32.190Z,46.71
2022-09-23T18:59:27.406Z,46.76
2022-09-23T19:02:18.907Z,46.71
2022-09-23T19:05:10.549Z,46.78
2022-09-23T19:08:02.345Z,46.76
2022-09-23T19:10:57.173Z,46.67
2022-09-23T19:13:47.543Z,46.71
2022-09-23T19:16:38.651Z,46.72
2022-09-23T19:19:29.680Z,46.83
2022-09-23T19:22:20.238Z,46.89
2022-09-23T19:25:11.813Z,46.91
2022-09-23T19:28:04.984Z,47.00
2022-09-23T19:30:55.704Z,47.06
2022-09-23T19:33:55.906Z,47.12
2022-09-23T19:36:47.401Z,47.12
2022-09-23T19:39:40.100Z,47.14
2022-09-23T19:42:30.503Z,47.01
2022-09-23T19:45:22.088Z,47.16
2022-09-23T19:48:12.693Z,47.17
2022-09-23T19:51:03.179Z,47.13
2022-09-23T19:53:53.789Z,47.33
2022-09-23T19:56:44.403Z,47.02
2022-09-23T19:59:34.761Z,47.14
2022-09-23T20:02:25.508Z,47.19
2022-09-23T20:05:20.289Z,47.24
2022-09-23T20:08:10.976Z,47.33
2022-09-23T20:11:09.656Z,47.17
2022-09-23T20:14:02.615Z,47.41
2022-09-23T20:16:55.647Z,47.39
2022-09-23T20:19:46.934Z,47.30
2022-09-23T20:22:37.279Z,47.31
2022-09-23T20:25:51.294Z,47.30
2022-09-23T20:28:41.672Z,47.43
2022-09-23T20:31:33.616Z,47.44
2022-09-23T20:34:27.574Z,47.36
2022-09-23T20:37:19.451Z,47.33
2022-09-23T20:40:12.824Z,47.54
2022-09-23T20:43:04.078Z,47.44
2022-09-23T20:45:55.413Z,47.38
2022-09-23T20:48:47.831Z,47.45
2022-09-23T20:51:38.713Z,47.44
2022-09-23T20:54:30.408Z,47.48
2022-09-23T20:57:22.321Z,47.55
2022-09-23T21:00:17.690Z,47.39
2022-09-23T21:03:08.416Z,47.53
2022-09-23T21:06:01.777Z,47.32
2022-09-23T21:08:54.397Z,47.57
2022-09-23T21:11:44.817Z,47.53
2022-09-23T21:14:35.141Z,47.51
2022-09-23T21:17:26.326Z,47.56
2022-09-23T21:20:16.807Z,47.63
2022-09-23T21:23:07.539Z,47.66
2022-09-23T21:26:02.551Z,47.59
2022-09-23T21:28:54.159Z,47.54
2022-09-23T21:31:44.905Z,47.61
2022-09-23T21:34:35.347Z,47.57
2022-09-23T21:37:25.797Z,47.57
2022-09-23T21:40:35.370Z,47.66
2022-09-23T21:43:27.104Z,47.61
2022-09-23T21:46:19.912Z,47.76
2022-09-23T21:49:10.342Z,47.74
2022-09-23T21:52:00.972Z,47.70
2022-09-23T21:54:51.967Z,47.68
2022-09-23T21:57:43.640Z,47.64
2022-09-23T22:00:34.062Z,47.66
2022-09-23T22:03:24.643Z,47.62
2022-09-23T22:06:20.965Z,47.73
2022-09-23T22:09:15.195Z,47.66
2022-09-23T22:12:07.996Z,47.71
2022-09-23T22:14:58.467Z,47.63
2022-09-23T22:17:49.457Z,47.69
2022-09-23T22:20:40.749Z,47.73
2022-09-23T22:23:31.338Z,47.81
2022-09-23T22:26:21.678Z,47.82
2022-09-23T22:29:31.682Z,47.70
2022-09-23T22:32:52.842Z,47.77
2022-09-23T22:35:45.979Z,47.66
2022-09-23T22:38:36.328Z,47.71
2022-09-23T22:41:26.840Z,47.72
2022-09-23T22:44:17.601Z,47.69
2022-09-23T22:47:08.628Z,47.71
2022-09-23T22:49:59.221Z,47.73
2022-09-23T22:52:49.470Z,47.68
2022-09-23T22:55:41.414Z,47.80
2022-09-23T22:58:32.938Z,47.66
2022-09-23T23:01:23.521Z,47.67
2022-09-23T23:04:14.298Z,47.74
2022-09-23T23:07:06.380Z,47.59
2022-09-23T23:09:57.572Z,47.72
2022-09-23T23:12:48.709Z,47.77
2022-09-23T23:15:40.549Z,47.74
2022-09-23T23:18:34.440Z,47.73
2022-09-23T23:21:24.724Z,47.75
2022-09-23T23:24:18.132Z,47.66
2022-09-23T23:27:08.402Z,47.68
2022-09-23T23:29:58.725Z,47.77
2022-09-23T23:32:49.005Z,47.78
2022-09-23T23:35:39.298Z,47.71
2022-09-23T23:38:29.578Z,47.72
2022-09-23T23:41:21.976Z,47.91
2022-09-23T23:44:14.146Z,47.86
2022-09-23T23:47:04.738Z,47.98
2022-09-23T23:49:55.120Z,47.73
2022-09-23T23:52:45.425Z,48.02
2022-09-23T23:55:39.274Z,47.91
2022-09-23T23:58:29.850Z,47.81
